sensor_id;sensor_type;location;lat;lon;timestamp;temperature;humidity
34837;DHT22;21053;50.848;4.652;2022-12-18T00:01:37;-5.70;99.90
34837;DHT22;21053;50.848;4.652;2022-12-18T00:04:25;-5.70;99.90
34837;DHT22;21053;50.848;4.652;2022-12-18T00:06:54;-5.50;99.90
34837;DHT22;21053;50.848;4.652;2022-12-18T00:09:23;-5.50;99.90
34837;DHT22;21053;50.848;4.652;2022-12-18T00:14:17;-5.60;99.90
34837;DHT22;21053;50.848;4.652;2022-12-18T00:16:46;-5.70;99.90
34837;DHT22;21053;50.848;4.652;2022-12-18T00:19:15;-5.90;99.90
34837;DHT22;21053;50.848;4.652;2022-12-18T00:21:44;-5.90;99.90
34837;DHT22;21053;50.848;4.652;2022-12-18T00:24:11;-5.90;99.90
34837;DHT22;21053;50.848;4.652;2022-12-18T00:26:39;-6.00;99.90
34837;DHT22;21053;50.848;4.652;2022-12-18T00:29:12;-6.00;99.90
34837;DHT22;21053;50.848;4.652;2022-12-18T00:31:43;-6.00;99.90
34837;DHT22;21053;50.848;4.652;2022-12-18T00:34:13;-5.90;99.90
34837;DHT22;21053;50.848;4.652;2022-12-18T00:36:41;-5.90;99.90
34837;DHT22;21053;50.848;4.652;2022-12-18T00:39:09;-5.70;99.90
34837;DHT22;21053;50.848;4.652;2022-12-18T00:41:36;-5.70;99.90
34837;DHT22;21053;50.848;4.652;2022-12-18T00:44:21;-5.90;99.90
34837;DHT22;21053;50.848;4.652;2022-12-18T00:46:48;-6.10;99.90
34837;DHT22;21053;50.848;4.652;2022-12-18T00:49:16;-6.00;99.90
34837;DHT22;21053;50.848;4.652;2022-12-18T00:51:44;-5.90;99.90
34837;DHT22;21053;50.848;4.652;2022-12-18T00:54:11;-6.00;99.90
34837;DHT22;21053;50.848;4.652;2022-12-18T00:56:38;-6.10;99.90
34837;DHT22;21053;50.848;4.652;2022-12-18T00:59:05;-6.20;99.90
34837;DHT22;21053;50.848;4.652;2022-12-18T01:01:32;-6.30;99.90
34837;DHT22;21053;50.848;4.652;2022-12-18T01:04:00;-6.20;99.90
34837;DHT22;21053;50.848;4.652;2022-12-18T01:06:29;-6.30;99.90
34837;DHT22;21053;50.848;4.652;2022-12-18T01:08:55;-6.40;99.90
34837;DHT22;21053;50.848;4.652;2022-12-18T01:11:22;-6.50;99.90
34837;DHT22;21053;50.848;4.652;2022-12-18T01:13:52;-6.50;99.90
34837;DHT22;21053;50.848;4.652;2022-12-18T01:16:19;-6.60;99.90
34837;DHT22;21053;50.848;4.652;2022-12-18T01:18:51;-6.60;99.90
34837;DHT22;21053;50.848;4.652;2022-12-18T01:21:17;-6.60;99.90
34837;DHT22;21053;50.848;4.652;2022-12-18T01:23:50;-6.60;99.90
34837;DHT22;21053;50.848;4.652;2022-12-18T01:26:17;-6.50;99.90
34837;DHT22;21053;50.848;4.652;2022-12-18T01:28:44;-6.50;99.90
34837;DHT22;21053;50.848;4.652;2022-12-18T01:31:22;-6.40;99.90
34837;DHT22;21053;50.848;4.652;2022-12-18T01:33:50;-6.50;99.90
34837;DHT22;21053;50.848;4.652;2022-12-18T01:36:20;-6.50;99.90
34837;DHT22;21053;50.848;4.652;2022-12-18T01:38:48;-6.60;99.90
34837;DHT22;21053;50.848;4.652;2022-12-18T01:41:22;-6.70;99.90
34837;DHT22;21053;50.848;4.652;2022-12-18T01:43:52;-6.80;99.90
34837;DHT22;21053;50.848;4.652;2022-12-18T01:46:25;-6.80;99.90
34837;DHT22;21053;50.848;4.652;2022-12-18T01:48:56;-6.70;99.90
34837;DHT22;21053;50.848;4.652;2022-12-18T01:51:23;-6.70;99.90
34837;DHT22;21053;50.848;4.652;2022-12-18T01:53:49;-6.80;99.90
34837;DHT22;21053;50.848;4.652;2022-12-18T01:56:18;-6.90;99.90
34837;DHT22;21053;50.848;4.652;2022-12-18T01:59:00;-6.90;99.90
34837;DHT22;21053;50.848;4.652;2022-12-18T02:01:30;-6.90;99.90
34837;DHT22;21053;50.848;4.652;2022-12-18T02:03:56;-6.80;99.90
34837;DHT22;21053;50.848;4.652;2022-12-18T02:06:41;-6.90;99.90
34837;DHT22;21053;50.848;4.652;2022-12-18T02:09:18;-6.80;99.90
34837;DHT22;21053;50.848;4.652;2022-12-18T02:12:22;-6.70;99.90
34837;DHT22;21053;50.848;4.652;2022-12-18T02:28:48;-7.20;99.90
34837;DHT22;21053;50.848;4.652;2022-12-18T02:31:18;-7.10;99.90
34837;DHT22;21053;50.848;4.652;2022-12-18T02:33:48;-7.00;99.90
34837;DHT22;21053;50.848;4.652;2022-12-18T02:36:15;-7.00;99.90
34837;DHT22;21053;50.848;4.652;2022-12-18T02:38:43;-6.90;99.90
34837;DHT22;21053;50.848;4.652;2022-12-18T02:41:11;-7.10;99.90
34837;DHT22;21053;50.848;4.652;2022-12-18T02:43:40;-7.20;99.90
34837;DHT22;21053;50.848;4.652;2022-12-18T02:46:31;-7.30;99.90
34837;DHT22;21053;50.848;4.652;2022-12-18T02:49:06;-7.40;99.90
34837;DHT22;21053;50.848;4.652;2022-12-18T02:51:51;-7.40;99.90
34837;DHT22;21053;50.848;4.652;2022-12-18T02:54:36;-7.30;99.90
34837;DHT22;21053;50.848;4.652;2022-12-18T03:00:18;-7.20;99.90
34837;DHT22;21053;50.848;4.652;2022-12-18T03:02:59;-7.20;99.90
34837;DHT22;21053;50.848;4.652;2022-12-18T03:05:43;-7.30;99.90
34837;DHT22;21053;50.848;4.652;2022-12-18T03:11:29;-7.20;99.90
34837;DHT22;21053;50.848;4.652;2022-12-18T03:17:39;-7.60;99.90
34837;DHT22;21053;50.848;4.652;2022-12-18T03:20:12;-7.70;99.90
34837;DHT22;21053;50.848;4.652;2022-12-18T03:22:46;-7.70;99.90
34837;DHT22;21053;50.848;4.652;2022-12-18T03:25:16;-7.70;99.90
34837;DHT22;21053;50.848;4.652;2022-12-18T03:27:49;-8.00;99.90
34837;DHT22;21053;50.848;4.652;2022-12-18T03:30:17;-8.20;99.90
34837;DHT22;21053;50.848;4.652;2022-12-18T03:33:18;-7.70;99.90
34837;DHT22;21053;50.848;4.652;2022-12-18T03:35:45;-7.60;99.90
34837;DHT22;21053;50.848;4.652;2022-12-18T03:38:13;-7.40;99.90
34837;DHT22;21053;50.848;4.652;2022-12-18T03:40:49;-7.40;99.90
34837;DHT22;21053;50.848;4.652;2022-12-18T03:46:22;-7.30;99.90
34837;DHT22;21053;50.848;4.652;2022-12-18T03:48:59;-7.40;99.90
34837;DHT22;21053;50.848;4.652;2022-12-18T03:54:06;-7.80;99.90
34837;DHT22;21053;50.848;4.652;2022-12-18T03:56:50;-7.90;99.90
34837;DHT22;21053;50.848;4.652;2022-12-18T03:59:20;-7.90;99.90
34837;DHT22;21053;50.848;4.652;2022-12-18T04:01:51;-7.90;99.90
34837;DHT22;21053;50.848;4.652;2022-12-18T04:04:21;-7.90;99.90
34837;DHT22;21053;50.848;4.652;2022-12-18T04:06:49;-8.00;99.90
34837;DHT22;21053;50.848;4.652;2022-12-18T04:09:18;-7.90;99.90
34837;DHT22;21053;50.848;4.652;2022-12-18T04:11:46;-7.80;99.90
34837;DHT22;21053;50.848;4.652;2022-12-18T04:14:12;-7.70;99.90
34837;DHT22;21053;50.848;4.652;2022-12-18T04:16:40;-7.50;99.90
34837;DHT22;21053;50.848;4.652;2022-12-18T04:19:07;-7.30;99.90
34837;DHT22;21053;50.848;4.652;2022-12-18T04:21:38;-7.50;99.90
34837;DHT22;21053;50.848;4.652;2022-12-18T04:25:13;-7.80;99.90
34837;DHT22;21053;50.848;4.652;2022-12-18T04:27:40;-7.90;99.90
34837;DHT22;21053;50.848;4.652;2022-12-18T04:30:07;-7.90;99.90
34837;DHT22;21053;50.848;4.652;2022-12-18T04:32:34;-7.90;99.90
34837;DHT22;21053;50.848;4.652;2022-12-18T04:35:01;-8.00;99.90
34837;DHT22;21053;50.848;4.652;2022-12-18T04:37:27;-7.90;99.90
34837;DHT22;21053;50.848;4.652;2022-12-18T04:39:54;-7.80;99.90
34837;DHT22;21053;50.848;4.652;2022-12-18T04:42:21;-7.70;99.90
34837;DHT22;21053;50.848;4.652;2022-12-18T04:44:48;-7.80;99.90
34837;DHT22;21053;50.848;4.652;2022-12-18T04:47:16;-7.80;99.90
34837;DHT22;21053;50.848;4.652;2022-12-18T04:49:44;-7.90;99.90
34837;DHT22;21053;50.848;4.652;2022-12-18T04:52:13;-8.00;99.90
34837;DHT22;21053;50.848;4.652;2022-12-18T04:54:41;-8.00;99.90
34837;DHT22;21053;50.848;4.652;2022-12-18T04:57:09;-7.90;99.90
34837;DHT22;21053;50.848;4.652;2022-12-18T04:59:38;-7.90;99.90
34837;DHT22;21053;50.848;4.652;2022-12-18T05:02:06;-7.90;99.90
34837;DHT22;21053;50.848;4.652;2022-12-18T05:04:35;-8.00;99.90
34837;DHT22;21053;50.848;4.652;2022-12-18T05:07:04;-8.10;99.90
34837;DHT22;21053;50.848;4.652;2022-12-18T05:09:31;-8.10;99.90
34837;DHT22;21053;50.848;4.652;2022-12-18T05:11:59;-8.30;99.90
34837;DHT22;21053;50.848;4.652;2022-12-18T05:14:28;-8.30;99.90
34837;DHT22;21053;50.848;4.652;2022-12-18T05:16:54;-8.30;99.90
34837;DHT22;21053;50.848;4.652;2022-12-18T05:19:22;-8.10;99.90
34837;DHT22;21053;50.848;4.652;2022-12-18T05:21:51;-8.10;99.90
34837;DHT22;21053;50.848;4.652;2022-12-18T05:24:20;-7.90;99.90
34837;DHT22;21053;50.848;4.652;2022-12-18T05:26:49;-8.00;99.90
34837;DHT22;21053;50.848;4.652;2022-12-18T05:29:16;-8.30;99.90
34837;DHT22;21053;50.848;4.652;2022-12-18T05:31:45;-8.20;99.90
34837;DHT22;21053;50.848;4.652;2022-12-18T05:34:11;-8.40;99.90
34837;DHT22;21053;50.848;4.652;2022-12-18T05:36:40;-8.30;99.90
34837;DHT22;21053;50.848;4.652;2022-12-18T05:39:09;-8.30;99.90
34837;DHT22;21053;50.848;4.652;2022-12-18T05:41:37;-8.30;99.90
34837;DHT22;21053;50.848;4.652;2022-12-18T05:44:08;-8.00;99.90
34837;DHT22;21053;50.848;4.652;2022-12-18T05:46:34;-7.80;99.90
34837;DHT22;21053;50.848;4.652;2022-12-18T05:49:01;-7.80;99.90
34837;DHT22;21053;50.848;4.652;2022-12-18T05:51:28;-7.80;99.90
34837;DHT22;21053;50.848;4.652;2022-12-18T05:54:00;-7.80;99.90
34837;DHT22;21053;50.848;4.652;2022-12-18T05:56:27;-8.00;99.90
34837;DHT22;21053;50.848;4.652;2022-12-18T05:58:55;-8.00;99.90
34837;DHT22;21053;50.848;4.652;2022-12-18T06:01:25;-8.00;99.90
34837;DHT22;21053;50.848;4.652;2022-12-18T06:03:55;-8.10;99.90
34837;DHT22;21053;50.848;4.652;2022-12-18T06:06:24;-8.00;99.90
34837;DHT22;21053;50.848;4.652;2022-12-18T06:09:42;-7.90;99.90
34837;DHT22;21053;50.848;4.652;2022-12-18T06:12:08;-7.70;99.90
34837;DHT22;21053;50.848;4.652;2022-12-18T06:14:34;-7.60;99.90
34837;DHT22;21053;50.848;4.652;2022-12-18T06:17:03;-7.80;99.90
34837;DHT22;21053;50.848;4.652;2022-12-18T06:19:29;-7.90;99.90
34837;DHT22;21053;50.848;4.652;2022-12-18T06:21:57;-8.00;99.90
34837;DHT22;21053;50.848;4.652;2022-12-18T06:24:27;-8.10;99.90
34837;DHT22;21053;50.848;4.652;2022-12-18T06:26:56;-8.20;99.90
34837;DHT22;21053;50.848;4.652;2022-12-18T06:29:27;-8.20;99.90
34837;DHT22;21053;50.848;4.652;2022-12-18T06:31:56;-8.20;99.90
34837;DHT22;21053;50.848;4.652;2022-12-18T06:34:25;-8.10;99.90
34837;DHT22;21053;50.848;4.652;2022-12-18T06:36:50;-8.00;99.90
34837;DHT22;21053;50.848;4.652;2022-12-18T06:40:54;-7.90;99.90
34837;DHT22;21053;50.848;4.652;2022-12-18T06:43:21;-7.90;99.90
34837;DHT22;21053;50.848;4.652;2022-12-18T06:45:50;-7.80;99.90
34837;DHT22;21053;50.848;4.652;2022-12-18T06:48:21;-7.80;99.90
34837;DHT22;21053;50.848;4.652;2022-12-18T06:50:47;-7.90;99.90
34837;DHT22;21053;50.848;4.652;2022-12-18T06:53:13;-8.00;99.90
34837;DHT22;21053;50.848;4.652;2022-12-18T06:55:39;-7.90;99.90
34837;DHT22;21053;50.848;4.652;2022-12-18T06:58:04;-8.00;99.90
34837;DHT22;21053;50.848;4.652;2022-12-18T07:00:31;-8.00;99.90
34837;DHT22;21053;50.848;4.652;2022-12-18T07:03:00;-8.00;99.90
34837;DHT22;21053;50.848;4.652;2022-12-18T07:05:26;-8.10;99.90
34837;DHT22;21053;50.848;4.652;2022-12-18T07:07:52;-8.30;99.90
34837;DHT22;21053;50.848;4.652;2022-12-18T07:10:19;-8.40;99.90
34837;DHT22;21053;50.848;4.652;2022-12-18T07:12:46;-8.20;99.90
34837;DHT22;21053;50.848;4.652;2022-12-18T07:15:12;-8.10;99.90
34837;DHT22;21053;50.848;4.652;2022-12-18T07:17:38;-8.00;99.90
34837;DHT22;21053;50.848;4.652;2022-12-18T07:20:07;-8.00;99.90
34837;DHT22;21053;50.848;4.652;2022-12-18T07:22:34;-7.90;99.90
34837;DHT22;21053;50.848;4.652;2022-12-18T07:25:00;-7.90;99.90
34837;DHT22;21053;50.848;4.652;2022-12-18T07:27:28;-7.90;99.90
34837;DHT22;21053;50.848;4.652;2022-12-18T07:29:54;-7.70;99.90
34837;DHT22;21053;50.848;4.652;2022-12-18T07:32:23;-7.60;99.90
34837;DHT22;21053;50.848;4.652;2022-12-18T07:34:52;-7.60;99.90
34837;DHT22;21053;50.848;4.652;2022-12-18T07:37:20;-7.70;99.90
34837;DHT22;21053;50.848;4.652;2022-12-18T07:39:48;-7.70;99.90
34837;DHT22;21053;50.848;4.652;2022-12-18T07:42:17;-7.70;99.90
34837;DHT22;21053;50.848;4.652;2022-12-18T07:45:04;-7.80;99.90
34837;DHT22;21053;50.848;4.652;2022-12-18T07:47:35;-8.00;99.90
34837;DHT22;21053;50.848;4.652;2022-12-18T07:50:03;-8.00;99.90
34837;DHT22;21053;50.848;4.652;2022-12-18T07:52:30;-8.00;99.90
34837;DHT22;21053;50.848;4.652;2022-12-18T07:54:58;-7.80;99.90
34837;DHT22;21053;50.848;4.652;2022-12-18T07:57:26;-7.90;99.90
34837;DHT22;21053;50.848;4.652;2022-12-18T07:59:51;-7.80;99.90
34837;DHT22;21053;50.848;4.652;2022-12-18T08:02:18;-7.70;99.90
34837;DHT22;21053;50.848;4.652;2022-12-18T08:04:47;-7.80;99.90
34837;DHT22;21053;50.848;4.652;2022-12-18T08:07:13;-7.60;99.90
34837;DHT22;21053;50.848;4.652;2022-12-18T08:09:40;-7.50;99.90
34837;DHT22;21053;50.848;4.652;2022-12-18T08:14:33;-7.60;99.90
34837;DHT22;21053;50.848;4.652;2022-12-18T08:17:01;-7.40;99.90
34837;DHT22;21053;50.848;4.652;2022-12-18T08:19:27;-7.30;99.90
34837;DHT22;21053;50.848;4.652;2022-12-18T08:21:54;-7.30;99.90
34837;DHT22;21053;50.848;4.652;2022-12-18T08:24:22;-7.30;99.90
34837;DHT22;21053;50.848;4.652;2022-12-18T08:26:51;-7.30;99.90
34837;DHT22;21053;50.848;4.652;2022-12-18T08:29:18;-7.30;99.90
34837;DHT22;21053;50.848;4.652;2022-12-18T08:31:45;-7.30;99.90
34837;DHT22;21053;50.848;4.652;2022-12-18T08:34:11;-7.20;99.90
34837;DHT22;21053;50.848;4.652;2022-12-18T08:36:39;-6.90;99.90
34837;DHT22;21053;50.848;4.652;2022-12-18T08:39:04;-6.80;99.90
34837;DHT22;21053;50.848;4.652;2022-12-18T08:41:30;-6.70;99.90
34837;DHT22;21053;50.848;4.652;2022-12-18T08:43:59;-6.40;99.90
34837;DHT22;21053;50.848;4.652;2022-12-18T08:46:53;-6.20;99.90
34837;DHT22;21053;50.848;4.652;2022-12-18T08:49:20;-6.10;99.90
34837;DHT22;21053;50.848;4.652;2022-12-18T08:51:46;-5.90;99.90
34837;DHT22;21053;50.848;4.652;2022-12-18T08:54:12;-5.80;99.90
34837;DHT22;21053;50.848;4.652;2022-12-18T08:56:40;-5.70;99.90
34837;DHT22;21053;50.848;4.652;2022-12-18T08:59:08;-5.40;99.90
34837;DHT22;21053;50.848;4.652;2022-12-18T09:01:35;-5.40;99.90
34837;DHT22;21053;50.848;4.652;2022-12-18T09:04:02;-5.20;99.90
34837;DHT22;21053;50.848;4.652;2022-12-18T09:09:07;-5.00;99.90
34837;DHT22;21053;50.848;4.652;2022-12-18T09:11:33;-4.90;99.90
34837;DHT22;21053;50.848;4.652;2022-12-18T09:14:00;-4.60;99.90
34837;DHT22;21053;50.848;4.652;2022-12-18T09:16:27;-4.50;99.90
34837;DHT22;21053;50.848;4.652;2022-12-18T09:18:55;-4.50;99.90
34837;DHT22;21053;50.848;4.652;2022-12-18T09:21:27;-1.50;99.90
34837;DHT22;21053;50.848;4.652;2022-12-18T09:23:55;-4.20;99.90
34837;DHT22;21053;50.848;4.652;2022-12-18T09:26:24;-4.10;99.90
34837;DHT22;21053;50.848;4.652;2022-12-18T09:28:53;-3.90;99.90
34837;DHT22;21053;50.848;4.652;2022-12-18T09:31:22;-3.70;99.90
34837;DHT22;21053;50.848;4.652;2022-12-18T09:33:48;-3.60;99.90
34837;DHT22;21053;50.848;4.652;2022-12-18T09:36:15;-3.40;99.90
34837;DHT22;21053;50.848;4.652;2022-12-18T09:38:42;-3.30;99.90
34837;DHT22;21053;50.848;4.652;2022-12-18T09:44:23;-3.20;99.90
34837;DHT22;21053;50.848;4.652;2022-12-18T09:49:55;-3.10;99.90
34837;DHT22;21053;50.848;4.652;2022-12-18T09:52:34;-2.90;99.90
34837;DHT22;21053;50.848;4.652;2022-12-18T09:55:32;-2.80;99.90
34837;DHT22;21053;50.848;4.652;2022-12-18T09:58:10;-2.70;99.90
34837;DHT22;21053;50.848;4.652;2022-12-18T10:00:40;-2.50;99.90
34837;DHT22;21053;50.848;4.652;2022-12-18T10:03:11;-2.50;99.90
34837;DHT22;21053;50.848;4.652;2022-12-18T10:05:46;-2.40;99.90
34837;DHT22;21053;50.848;4.652;2022-12-18T10:08:25;-2.40;99.90
34837;DHT22;21053;50.848;4.652;2022-12-18T10:11:03;-2.30;99.90
34837;DHT22;21053;50.848;4.652;2022-12-18T10:13:45;-2.20;99.90
34837;DHT22;21053;50.848;4.652;2022-12-18T10:16:25;-2.10;99.90
34837;DHT22;21053;50.848;4.652;2022-12-18T10:28:26;-1.90;99.90
34837;DHT22;21053;50.848;4.652;2022-12-18T10:30:52;-1.80;99.90
34837;DHT22;21053;50.848;4.652;2022-12-18T10:33:22;-1.70;99.90
34837;DHT22;21053;50.848;4.652;2022-12-18T10:35:50;-1.70;99.90
34837;DHT22;21053;50.848;4.652;2022-12-18T10:40:59;-1.70;99.90
34837;DHT22;21053;50.848;4.652;2022-12-18T10:43:34;-1.70;99.90
34837;DHT22;21053;50.848;4.652;2022-12-18T10:46:04;-1.50;99.90
34837;DHT22;21053;50.848;4.652;2022-12-18T10:51:03;-1.30;99.90
34837;DHT22;21053;50.848;4.652;2022-12-18T10:53:31;-1.20;99.90
34837;DHT22;21053;50.848;4.652;2022-12-18T10:55:59;-1.10;99.90
34837;DHT22;21053;50.848;4.652;2022-12-18T11:03:43;-1.00;99.90
34837;DHT22;21053;50.848;4.652;2022-12-18T11:06:19;-0.90;99.90
34837;DHT22;21053;50.848;4.652;2022-12-18T11:09:22;-0.90;99.90
34837;DHT22;21053;50.848;4.652;2022-12-18T11:11:53;-0.80;99.90
34837;DHT22;21053;50.848;4.652;2022-12-18T11:14:42;-0.60;99.90
34837;DHT22;21053;50.848;4.652;2022-12-18T11:19:58;-0.40;99.90
34837;DHT22;21053;50.848;4.652;2022-12-18T11:33:47;0.30;99.90
34837;DHT22;21053;50.848;4.652;2022-12-18T11:36:17;0.40;99.90
34837;DHT22;21053;50.848;4.652;2022-12-18T11:38:44;0.40;99.90
34837;DHT22;21053;50.848;4.652;2022-12-18T11:41:34;1.90;99.90
34837;DHT22;21053;50.848;4.652;2022-12-18T11:44:53;0.50;99.90
34837;DHT22;21053;50.848;4.652;2022-12-18T11:47:41;0.50;99.90
34837;DHT22;21053;50.848;4.652;2022-12-18T11:52:51;0.20;99.90
34837;DHT22;21053;50.848;4.652;2022-12-18T11:55:25;0.40;99.90
34837;DHT22;21053;50.848;4.652;2022-12-18T12:00:50;0.50;99.90
34837;DHT22;21053;50.848;4.652;2022-12-18T12:06:34;0.70;99.90
34837;DHT22;21053;50.848;4.652;2022-12-18T12:15:03;0.70;99.90
34837;DHT22;21053;50.848;4.652;2022-12-18T12:21:54;0.90;99.90
34837;DHT22;21053;50.848;4.652;2022-12-18T12:30:37;1.10;99.90
34837;DHT22;21053;50.848;4.652;2022-12-18T12:39:11;1.40;99.90
34837;DHT22;21053;50.848;4.652;2022-12-18T12:41:46;1.60;99.90
34837;DHT22;21053;50.848;4.652;2022-12-18T12:44:43;1.60;99.90
34837;DHT22;21053;50.848;4.652;2022-12-18T12:47:39;1.70;99.90
34837;DHT22;21053;50.848;4.652;2022-12-18T12:50:13;1.70;99.90
34837;DHT22;21053;50.848;4.652;2022-12-18T12:52:42;1.80;99.90
34837;DHT22;21053;50.848;4.652;2022-12-18T12:55:17;2.60;99.90
34837;DHT22;21053;50.848;4.652;2022-12-18T12:58:11;1.80;99.90
34837;DHT22;21053;50.848;4.652;2022-12-18T13:01:08;1.70;99.90
34837;DHT22;21053;50.848;4.652;2022-12-18T13:09:11;1.40;99.90
34837;DHT22;21053;50.848;4.652;2022-12-18T13:11:46;1.30;99.90
34837;DHT22;21053;50.848;4.652;2022-12-18T13:14:35;1.20;99.90
34837;DHT22;21053;50.848;4.652;2022-12-18T13:20:14;1.60;99.90
34837;DHT22;21053;50.848;4.652;2022-12-18T13:22:49;1.70;99.90
34837;DHT22;21053;50.848;4.652;2022-12-18T13:25:37;1.60;99.90
34837;DHT22;21053;50.848;4.652;2022-12-18T13:31:01;1.70;99.90
34837;DHT22;21053;50.848;4.652;2022-12-18T13:38:23;1.80;99.90
34837;DHT22;21053;50.848;4.652;2022-12-18T13:40:58;1.90;99.90
34837;DHT22;21053;50.848;4.652;2022-12-18T13:43:52;1.90;99.90
34837;DHT22;21053;50.848;4.652;2022-12-18T13:46:21;1.90;99.90
34837;DHT22;21053;50.848;4.652;2022-12-18T13:51:31;1.90;99.90
34837;DHT22;21053;50.848;4.652;2022-12-18T13:54:02;1.70;99.90
34837;DHT22;21053;50.848;4.652;2022-12-18T13:56:43;1.80;99.90
34837;DHT22;21053;50.848;4.652;2022-12-18T14:01:50;1.70;99.90
34837;DHT22;21053;50.848;4.652;2022-12-18T14:04:31;1.80;99.90
34837;DHT22;21053;50.848;4.652;2022-12-18T14:12:33;1.60;99.90
34837;DHT22;21053;50.848;4.652;2022-12-18T14:18:19;1.70;99.90
34837;DHT22;21053;50.848;4.652;2022-12-18T14:20:47;1.70;99.90
34837;DHT22;21053;50.848;4.652;2022-12-18T14:26:03;1.70;99.90
34837;DHT22;21053;50.848;4.652;2022-12-18T14:28:30;1.90;99.90
34837;DHT22;21053;50.848;4.652;2022-12-18T14:30:58;2.00;99.90
34837;DHT22;21053;50.848;4.652;2022-12-18T14:33:31;1.80;99.90
34837;DHT22;21053;50.848;4.652;2022-12-18T14:36:00;1.70;99.90
34837;DHT22;21053;50.848;4.652;2022-12-18T14:40:41;1.60;99.90
34837;DHT22;21053;50.848;4.652;2022-12-18T14:43:13;1.70;99.90
34837;DHT22;21053;50.848;4.652;2022-12-18T14:45:42;1.50;99.90
34837;DHT22;21053;50.848;4.652;2022-12-18T14:48:14;1.50;99.90
34837;DHT22;21053;50.848;4.652;2022-12-18T14:50:43;1.60;99.90
34837;DHT22;21053;50.848;4.652;2022-12-18T14:53:26;1.60;99.90
34837;DHT22;21053;50.848;4.652;2022-12-18T14:56:27;1.50;99.90
34837;DHT22;21053;50.848;4.652;2022-12-18T14:59:13;1.50;99.90
34837;DHT22;21053;50.848;4.652;2022-12-18T15:04:45;1.50;99.90
34837;DHT22;21053;50.848;4.652;2022-12-18T15:07:20;1.40;99.90
34837;DHT22;21053;50.848;4.652;2022-12-18T15:12:43;1.20;99.90
34837;DHT22;21053;50.848;4.652;2022-12-18T15:21:11;1.70;99.90
34837;DHT22;21053;50.848;4.652;2022-12-18T15:23:49;1.60;99.90
34837;DHT22;21053;50.848;4.652;2022-12-18T15:26:20;1.60;99.90
34837;DHT22;21053;50.848;4.652;2022-12-18T15:28:56;1.50;99.90
34837;DHT22;21053;50.848;4.652;2022-12-18T15:31:34;1.40;99.90
34837;DHT22;21053;50.848;4.652;2022-12-18T15:34:19;1.30;99.90
34837;DHT22;21053;50.848;4.652;2022-12-18T15:36:47;1.50;99.90
34837;DHT22;21053;50.848;4.652;2022-12-18T15:39:13;1.50;99.90
34837;DHT22;21053;50.848;4.652;2022-12-18T15:41:42;1.50;99.90
34837;DHT22;21053;50.848;4.652;2022-12-18T15:44:31;1.60;99.90
34837;DHT22;21053;50.848;4.652;2022-12-18T15:46:58;1.60;99.90
34837;DHT22;21053;50.848;4.652;2022-12-18T15:49:24;1.70;99.90
34837;DHT22;21053;50.848;4.652;2022-12-18T15:51:53;1.50;99.90
34837;DHT22;21053;50.848;4.652;2022-12-18T15:54:22;1.50;99.90
34837;DHT22;21053;50.848;4.652;2022-12-18T15:57:11;1.80;99.90
34837;DHT22;21053;50.848;4.652;2022-12-18T15:59:52;1.70;99.90
34837;DHT22;21053;50.848;4.652;2022-12-18T16:02:21;1.60;99.90
34837;DHT22;21053;50.848;4.652;2022-12-18T16:04:54;1.70;99.90
34837;DHT22;21053;50.848;4.652;2022-12-18T16:07:22;1.80;99.90
34837;DHT22;21053;50.848;4.652;2022-12-18T16:09:50;1.70;99.90
34837;DHT22;21053;50.848;4.652;2022-12-18T16:12:22;1.60;99.90
34837;DHT22;21053;50.848;4.652;2022-12-18T16:14:52;1.80;99.90
34837;DHT22;21053;50.848;4.652;2022-12-18T16:17:21;1.80;99.90
34837;DHT22;21053;50.848;4.652;2022-12-18T16:19:50;1.70;99.90
34837;DHT22;21053;50.848;4.652;2022-12-18T16:22:22;2.00;99.90
34837;DHT22;21053;50.848;4.652;2022-12-18T16:24:48;2.00;99.90
34837;DHT22;21053;50.848;4.652;2022-12-18T16:27:18;1.90;99.90
34837;DHT22;21053;50.848;4.652;2022-12-18T16:29:49;1.80;99.90
34837;DHT22;21053;50.848;4.652;2022-12-18T16:32:20;1.90;99.90
34837;DHT22;21053;50.848;4.652;2022-12-18T16:34:48;1.80;99.90
34837;DHT22;21053;50.848;4.652;2022-12-18T16:37:15;1.80;99.90
34837;DHT22;21053;50.848;4.652;2022-12-18T16:39:44;1.80;99.90
34837;DHT22;21053;50.848;4.652;2022-12-18T16:42:14;1.90;99.90
34837;DHT22;21053;50.848;4.652;2022-12-18T16:44:42;1.90;99.90
34837;DHT22;21053;50.848;4.652;2022-12-18T16:47:09;1.90;99.90
34837;DHT22;21053;50.848;4.652;2022-12-18T16:49:38;1.80;99.90
34837;DHT22;21053;50.848;4.652;2022-12-18T16:52:05;2.00;99.90
34837;DHT22;21053;50.848;4.652;2022-12-18T16:54:37;1.90;99.90
34837;DHT22;21053;50.848;4.652;2022-12-18T16:57:08;2.10;99.90
34837;DHT22;21053;50.848;4.652;2022-12-18T16:59:37;2.10;99.90
34837;DHT22;21053;50.848;4.652;2022-12-18T17:02:10;2.10;99.90
34837;DHT22;21053;50.848;4.652;2022-12-18T17:04:40;2.10;99.90
34837;DHT22;21053;50.848;4.652;2022-12-18T17:07:10;2.00;99.90
34837;DHT22;21053;50.848;4.652;2022-12-18T17:09:38;2.00;99.90
34837;DHT22;21053;50.848;4.652;2022-12-18T17:12:05;2.10;99.90
34837;DHT22;21053;50.848;4.652;2022-12-18T17:14:33;2.00;99.90
34837;DHT22;21053;50.848;4.652;2022-12-18T17:17:02;2.10;99.90
34837;DHT22;21053;50.848;4.652;2022-12-18T17:19:31;2.20;99.90
34837;DHT22;21053;50.848;4.652;2022-12-18T17:21:58;2.20;99.90
34837;DHT22;21053;50.848;4.652;2022-12-18T17:24:26;2.10;99.90
34837;DHT22;21053;50.848;4.652;2022-12-18T17:26:54;2.10;99.90
34837;DHT22;21053;50.848;4.652;2022-12-18T17:29:22;2.10;99.90
34837;DHT22;21053;50.848;4.652;2022-12-18T17:31:51;2.10;99.90
34837;DHT22;21053;50.848;4.652;2022-12-18T17:34:17;2.20;99.90
34837;DHT22;21053;50.848;4.652;2022-12-18T17:36:44;2.10;99.90
34837;DHT22;21053;50.848;4.652;2022-12-18T17:39:15;2.10;99.90
34837;DHT22;21053;50.848;4.652;2022-12-18T17:41:41;2.30;99.90
34837;DHT22;21053;50.848;4.652;2022-12-18T17:44:08;2.30;99.90
34837;DHT22;21053;50.848;4.652;2022-12-18T17:46:36;2.30;99.90
34837;DHT22;21053;50.848;4.652;2022-12-18T17:49:03;2.40;99.90
34837;DHT22;21053;50.848;4.652;2022-12-18T17:51:29;2.30;99.90
34837;DHT22;21053;50.848;4.652;2022-12-18T17:53:57;2.40;99.90
34837;DHT22;21053;50.848;4.652;2022-12-18T17:56:25;2.30;99.90
34837;DHT22;21053;50.848;4.652;2022-12-18T17:58:51;2.30;99.90
34837;DHT22;21053;50.848;4.652;2022-12-18T18:01:21;2.40;99.90
34837;DHT22;21053;50.848;4.652;2022-12-18T18:03:50;2.50;99.90
34837;DHT22;21053;50.848;4.652;2022-12-18T18:06:19;2.50;99.90
34837;DHT22;21053;50.848;4.652;2022-12-18T18:08:45;2.40;99.90
34837;DHT22;21053;50.848;4.652;2022-12-18T18:11:14;2.40;99.90
34837;DHT22;21053;50.848;4.652;2022-12-18T18:14:04;2.50;99.90
34837;DHT22;21053;50.848;4.652;2022-12-18T18:16:40;2.40;99.90
34837;DHT22;21053;50.848;4.652;2022-12-18T18:19:08;2.40;99.90
34837;DHT22;21053;50.848;4.652;2022-12-18T18:21:37;2.40;99.90
34837;DHT22;21053;50.848;4.652;2022-12-18T18:24:04;2.30;99.90
34837;DHT22;21053;50.848;4.652;2022-12-18T18:26:31;2.40;99.90
34837;DHT22;21053;50.848;4.652;2022-12-18T18:29:25;2.30;99.90
34837;DHT22;21053;50.848;4.652;2022-12-18T18:31:54;2.40;99.90
34837;DHT22;21053;50.848;4.652;2022-12-18T18:34:28;2.30;99.90
34837;DHT22;21053;50.848;4.652;2022-12-18T18:37:18;2.40;99.90
34837;DHT22;21053;50.848;4.652;2022-12-18T18:39:46;2.30;99.90
34837;DHT22;21053;50.848;4.652;2022-12-18T18:42:12;2.30;99.90